Luiziana, Brazil
Current Conditions -  °F | °C
As of 2:00 PM on Thursday 27 Nov 2014 (Local Time) from SBMG Reporting Station
Rain Showers Rain Showers  
Wind Chill: 84°   Ceiling: Unl
Heat Index: 90°   Visibility: 6mi
Dew Point: 72°   Wind: 5mph
Humidity: 66%   Direction: 80°E
Pressure: 29.88"   Gusts: NA
Location:  24.29°S, 52.28°W
Report Text: SBMG 271600Z 08004KT 9999 VCSH SCT034 FEW040TCU 29/22 Q1012
Loading
Personal Weather Stations






























Interactive Weather Map New forecast layout! Learn more

10-Day Weather Forecast

Advertisements
Track Severe Weather on mobile